Time;durP1;ratioP1;P1;durP2;ratioP2;P2;SDS_P1;SDS_P2;PMS_P1;PMS_P2;Temp;Humidity;BMP_temperature;BMP_pressure;BME280_temperature;BME280_humidity;BME280_pressure;Samples;Min_cycle;Max_cycle;Signal;HPM_P1;HPM_P2
2022/01/17 00:00:55;;;;;;;61.03;25.85;;;6.10;99.90;;;;;;6209132;23;20009;-85
2022/01/17 00:03:24;;;;;;;59.57;23.80;;;6.10;99.90;;;;;;6184089;23;20012;-85
2022/01/17 00:05:53;;;;;;;58.92;24.48;;;6.10;99.90;;;;;;6184402;23;20344;-85
2022/01/17 00:08:19;;;;;;;49.35;22.20;;;6.10;99.90;;;;;;6184184;23;20099;-85
2022/01/17 00:10:46;;;;;;;56.07;22.83;;;6.10;99.90;;;;;;6184673;23;20432;-85
2022/01/17 00:13:24;;;;;;;48.03;22.43;;;6.10;99.90;;;;;;6184480;23;20020;-85
2022/01/17 00:15:55;;;;;;;54.93;23.50;;;6.10;99.90;;;;;;6187825;23;20008;-85
2022/01/17 00:20:47;;;;;;;53.57;22.87;;;6.10;99.90;;;;;;6186078;23;20012;-85
2022/01/17 00:23:17;;;;;;;53.20;23.17;;;6.10;99.90;;;;;;6185818;23;20436;-86
2022/01/17 00:25:43;;;;;;;;;;;6.10;99.90;;;;;;6210257;23;20075;-85
2022/01/17 00:28:09;;;;;;;53.27;22.73;;;6.10;99.90;;;;;;6183620;23;19905;-84
2022/01/17 00:30:35;;;;;;;58.50;24.20;;;6.20;99.90;;;;;;6208887;23;20016;-85
2022/01/17 00:33:00;;;;;;;58.53;24.87;;;6.10;99.90;;;;;;6185007;23;20351;-85
2022/01/17 00:35:26;;;;;;;55.53;23.97;;;6.10;99.90;;;;;;6183689;23;20009;-85
2022/01/17 00:37:52;;;;;;;56.27;25.07;;;6.10;99.90;;;;;;6158370;23;20348;-85
2022/01/17 00:40:19;;;;;;;56.83;24.70;;;6.10;99.90;;;;;;6208533;23;20467;-85
2022/01/17 00:42:45;;;;;;;53.03;23.73;;;6.10;99.90;;;;;;6183069;23;20009;-85
2022/01/17 00:45:13;;;;;;;51.67;24.13;;;6.10;99.90;;;;;;6183718;23;20005;-85
2022/01/17 00:47:40;;;;;;;52.75;23.08;;;6.10;99.90;;;;;;6208283;23;20076;-85
2022/01/17 00:50:06;;;;;;;53.00;24.17;;;6.10;99.90;;;;;;6183247;23;20466;-85
2022/01/17 00:52:32;;;;;;;56.67;24.63;;;6.10;99.90;;;;;;6183562;23;20396;-85
2022/01/17 00:54:58;;;;;;;59.43;25.63;;;6.20;99.90;;;;;;6183468;23;20009;-84
2022/01/17 00:57:24;;;;;;;57.30;25.50;;;6.20;99.90;;;;;;6184763;23;20017;-85
2022/01/17 00:59:51;;;;;;;52.73;24.77;;;6.10;99.90;;;;;;6183220;23;20001;-85
2022/01/17 01:02:16;;;;;;;60.93;25.47;;;6.10;99.90;;;;;;6208154;23;20008;-85
2022/01/17 01:04:43;;;;;;;64.83;26.83;;;6.10;99.90;;;;;;6183031;23;20005;-86
2022/01/17 01:07:08;;;;;;;58.57;25.77;;;6.10;99.90;;;;;;6182908;23;20020;-85
2022/01/17 01:09:43;;;;;;;60.03;27.83;;;6.10;99.90;;;;;;6184716;23;20013;-85
2022/01/17 01:12:09;;;;;;;62.30;26.80;;;6.10;99.90;;;;;;6183653;23;20016;-85
2022/01/17 01:14:35;;;;;;;63.20;26.83;;;6.10;99.90;;;;;;6183559;23;20005;-85
2022/01/17 01:17:07;;;;;;;65.47;27.23;;;6.20;99.90;;;;;;6183640;23;20048;-85
2022/01/17 01:19:40;;;;;;;62.23;28.53;;;6.20;99.90;;;;;;6182994;23;20001;-85
2022/01/17 01:30:07;;;;;;;53.78;22.20;;;6.20;99.90;;;;;;6184366;23;20009;-85
2022/01/17 01:32:41;;;;;;;67.93;28.95;;;6.20;99.90;;;;;;6158011;23;20021;-85
2022/01/17 01:35:10;;;;;;;74.53;29.93;;;6.20;99.90;;;;;;6183067;23;20076;-86
2022/01/17 01:37:36;;;;;;;72.10;30.25;;;6.20;99.90;;;;;;6184760;23;20046;-85
2022/01/17 01:40:03;;;;;;;72.00;30.50;;;6.20;99.90;;;;;;6158846;23;20417;-85
2022/01/17 01:42:31;;;;;;;78.73;30.97;;;6.20;99.90;;;;;;6158453;23;20044;-85
2022/01/17 01:44:57;;;;;;;76.20;32.00;;;6.20;99.90;;;;;;6158705;23;20092;-84
2022/01/17 01:47:25;;;;;;;72.60;31.77;;;6.20;99.90;;;;;;6184997;23;20048;-85
2022/01/17 01:49:51;;;;;;;73.20;31.10;;;6.20;99.90;;;;;;6183361;23;20009;-85
2022/01/17 01:52:17;;;;;;;74.97;32.23;;;6.20;99.90;;;;;;6182630;23;20527;-85
2022/01/17 01:54:43;;;;;;;73.23;32.17;;;6.20;99.90;;;;;;6184144;23;20032;-85
2022/01/17 01:57:09;;;;;;;74.40;31.47;;;6.20;99.90;;;;;;6159849;23;20325;-85
2022/01/17 01:59:37;;;;;;;83.33;33.53;;;6.30;99.90;;;;;;6159657;23;20016;-84
2022/01/17 02:02:04;;;;;;;71.23;30.90;;;6.20;99.90;;;;;;6186221;23;19997;-85
2022/01/17 02:04:30;;;;;;;76.30;31.17;;;6.30;99.90;;;;;;6159833;23;20428;-85
2022/01/17 02:06:56;;;;;;;79.03;33.13;;;6.30;99.90;;;;;;6159821;23;20013;-85
2022/01/17 02:09:24;;;;;;;79.53;31.80;;;6.30;99.90;;;;;;6184491;23;20380;-85
2022/01/17 02:11:51;;;;;;;83.43;31.63;;;6.30;99.90;;;;;;6186049;23;20444;-85
2022/01/17 02:14:16;;;;;;;76.23;31.90;;;6.20;99.90;;;;;;6134865;23;20016;-86
2022/01/17 02:16:44;;;;;;;70.77;31.27;;;6.20;99.90;;;;;;6186078;23;20009;-86
2022/01/17 02:19:11;;;;;;;72.17;32.43;;;6.20;99.90;;;;;;6185858;23;20016;-85
2022/01/17 02:21:46;;;;;;;71.37;31.07;;;6.30;99.90;;;;;;6184343;23;20425;-86
2022/01/17 02:24:18;;;;;;;67.80;30.13;;;6.30;99.90;;;;;;6206768;23;20009;-85
2022/01/17 02:26:45;;;;;;;75.17;30.37;;;6.40;99.90;;;;;;6186220;23;20005;-85
2022/01/17 02:29:11;;;;;;;74.63;30.80;;;6.40;99.90;;;;;;6185862;23;20012;-85
2022/01/17 02:31:37;;;;;;;68.33;28.90;;;6.30;99.90;;;;;;6184900;23;20064;-85
2022/01/17 02:34:03;;;;;;;74.43;30.83;;;6.30;99.90;;;;;;6189226;23;20017;-86
2022/01/17 02:36:30;;;;;;;71.40;31.20;;;6.30;99.90;;;;;;6185220;23;20017;-86
2022/01/17 02:38:56;;;;;;;78.03;32.67;;;6.30;99.90;;;;;;6209057;23;20005;-85
2022/01/17 02:41:22;;;;;;;76.63;32.73;;;6.30;99.90;;;;;;6185870;23;20008;-85
2022/01/17 02:43:48;;;;;;;70.83;30.13;;;6.40;99.90;;;;;;6184468;23;20336;-85
2022/01/17 02:46:27;;;;;;;70.13;29.90;;;6.40;99.90;;;;;;6184556;23;20064;-85
2022/01/17 02:48:54;;;;;;;72.28;29.63;;;6.30;99.90;;;;;;6209464;23;20005;-85
2022/01/17 02:51:20;;;;;;;71.50;29.20;;;6.30;99.90;;;;;;6209306;23;20077;-85
2022/01/17 02:53:46;;;;;;;71.37;29.23;;;6.30;99.90;;;;;;6184077;23;20078;-85
2022/01/17 02:56:12;;;;;;;73.20;31.77;;;6.30;99.90;;;;;;6209389;23;20001;-85
2022/01/17 02:58:40;;;;;;;69.53;29.10;;;6.40;99.90;;;;;;6184182;23;20005;-86
2022/01/17 03:01:13;;;;;;;67.73;29.13;;;6.30;99.90;;;;;;6184290;23;20387;-85
2022/01/17 03:03:41;;;;;;;72.13;29.10;;;6.30;99.90;;;;;;6186036;23;20005;-85
2022/01/17 03:06:08;;;;;;;63.58;28.38;;;6.40;99.90;;;;;;6185781;23;20424;-85
2022/01/17 03:08:35;;;;;;;71.57;29.87;;;6.40;99.90;;;;;;6183831;23;20084;-85
2022/01/17 03:11:05;;;;;;;69.40;29.53;;;6.40;99.90;;;;;;6183927;23;20002;-85
2022/01/17 03:13:33;;;;;;;70.17;29.53;;;6.40;99.90;;;;;;6185572;23;20009;-85
2022/01/17 03:16:04;;;;;;;71.93;29.97;;;6.30;99.90;;;;;;6183874;23;20325;-85
2022/01/17 03:18:33;;;;;;;72.10;31.40;;;6.40;99.90;;;;;;6181610;23;20040;-85
2022/01/17 03:21:00;;;;;;;68.07;29.65;;;6.40;99.90;;;;;;6208866;23;20011;-85
2022/01/17 03:23:26;;;;;;;69.60;29.77;;;6.40;99.90;;;;;;6209116;23;20013;-85
2022/01/17 03:25:52;;;;;;;67.27;29.47;;;6.40;99.90;;;;;;6208904;23;20009;-85
2022/01/17 03:28:18;;;;;;;70.10;30.63;;;6.40;99.90;;;;;;6208637;23;20009;-85
2022/01/17 03:30:44;;;;;;;71.77;30.07;;;6.40;99.90;;;;;;6208982;23;20475;-85
2022/01/17 03:33:12;;;;;;;69.67;29.47;;;6.40;99.90;;;;;;6183529;23;20016;-85
2022/01/17 03:35:39;;;;;;;68.60;29.60;;;6.40;99.90;;;;;;6185093;23;20005;-86
2022/01/17 03:38:10;;;;;;;66.93;31.10;;;6.40;99.90;;;;;;6183284;23;20013;-85
2022/01/17 03:40:37;;;;;;;70.07;28.93;;;6.40;99.90;;;;;;6185176;23;20012;-85
2022/01/17 03:43:07;;;;;;;68.43;29.87;;;6.40;99.90;;;;;;6208589;23;20005;-85
2022/01/17 03:45:32;;;;;;;;;;;6.40;99.90;;;;;;6184054;23;20001;-85
2022/01/17 03:47:58;;;;;;;74.07;29.00;;;6.40;99.90;;;;;;6183254;23;19936;-85
2022/01/17 03:50:27;;;;;;;70.23;30.30;;;6.40;99.90;;;;;;6183349;23;20013;-85
2022/01/17 03:52:52;;;;;;;75.90;30.30;;;6.40;99.90;;;;;;6183319;23;20331;-85
2022/01/17 03:55:20;;;;;;;67.43;29.93;;;6.50;99.90;;;;;;6208682;23;20037;-85
2022/01/17 03:57:46;;;;;;;70.50;30.57;;;6.40;99.90;;;;;;6184750;23;20519;-85
2022/01/17 04:00:19;;;;;;;76.70;31.07;;;6.40;99.90;;;;;;6185325;23;20001;-85
2022/01/17 04:02:45;;;;;;;73.10;30.60;;;6.40;99.90;;;;;;6184096;23;20436;-85
2022/01/17 04:05:11;;;;;;;68.87;30.17;;;6.50;99.90;;;;;;6184609;23;20012;-85
2022/01/17 04:07:37;;;;;;;72.50;30.77;;;6.50;99.90;;;;;;6183170;23;20009;-85
2022/01/17 04:10:03;;;;;;;73.23;32.77;;;6.50;99.90;;;;;;6183041;23;20037;-85
2022/01/17 04:12:32;;;;;;;74.10;31.90;;;6.40;99.90;;;;;;6184512;23;20335;-85
2022/01/17 04:14:58;;;;;;;75.40;31.35;;;6.40;99.90;;;;;;6182723;23;20020;-85
2022/01/17 04:17:27;;;;;;;68.23;29.37;;;6.40;99.90;;;;;;6184479;23;20013;-85
2022/01/17 04:20:03;;;;;;;66.57;29.83;;;6.40;99.90;;;;;;6182917;23;20016;-85
2022/01/17 04:22:31;;;;;;;67.43;27.90;;;6.40;99.90;;;;;;6184515;23;20397;-86
2022/01/17 04:24:56;;;;;;;65.97;28.70;;;6.50;99.90;;;;;;6158312;23;20009;-86
2022/01/17 04:27:22;;;;;;;64.13;27.93;;;6.40;99.90;;;;;;6184686;23;20015;-86
2022/01/17 04:29:48;;;;;;;67.30;28.47;;;6.40;99.90;;;;;;6157909;23;20337;-86
2022/01/17 04:32:13;;;;;;;63.47;27.57;;;6.50;99.90;;;;;;6184585;23;20052;-85
2022/01/17 04:34:39;;;;;;;56.17;25.90;;;6.50;99.90;;;;;;6184424;23;20017;-86
2022/01/17 04:37:07;;;;;;;58.40;24.73;;;6.50;99.90;;;;;;6158101;23;20019;-85
2022/01/17 04:39:33;;;;;;;52.03;22.00;;;6.60;99.90;;;;;;6157979;23;20004;-86
2022/01/17 04:41:58;;;;;;;46.47;20.97;;;6.60;99.90;;;;;;6182974;23;20085;-87
2022/01/17 04:47:08;;;;;;;50.57;20.33;;;6.60;99.90;;;;;;6158401;23;20096;-86
2022/01/17 04:49:34;;;;;;;48.40;20.03;;;6.50;99.90;;;;;;6181142;23;20139;-86
2022/01/17 04:52:00;;;;;;;45.87;19.97;;;6.50;99.90;;;;;;6154213;23;20106;-86
2022/01/17 04:54:40;;;;;;;41.70;19.10;;;6.50;99.90;;;;;;6156673;23;20100;-86
2022/01/17 04:57:06;;;;;;;46.93;18.50;;;6.50;99.90;;;;;;6182016;23;20005;-86
2022/01/17 04:59:32;;;;;;;47.17;19.40;;;6.50;99.90;;;;;;6183616;23;20071;-87
2022/01/17 05:01:58;;;;;;;38.80;17.47;;;6.40;99.90;;;;;;6184221;23;20005;-86
2022/01/17 05:04:24;;;;;;;43.70;17.97;;;6.50;99.90;;;;;;6160713;23;20009;-86
2022/01/17 05:06:49;;;;;;;40.97;17.87;;;6.50;99.90;;;;;;6158982;23;20013;-85
2022/01/17 05:09:15;;;;;;;34.40;17.17;;;6.50;99.90;;;;;;6157819;23;20072;-85
2022/01/17 05:11:42;;;;;;;42.20;17.03;;;6.50;99.90;;;;;;6184052;23;20013;-85
2022/01/17 05:14:08;;;;;;;42.57;17.27;;;6.50;99.90;;;;;;6181095;23;20012;-86
2022/01/17 05:16:39;;;;;;;46.10;17.23;;;6.50;99.90;;;;;;6156168;23;20005;-85
2022/01/17 05:21:49;;;;;;;36.77;18.17;;;6.50;99.90;;;;;;6156338;23;20020;-86
2022/01/17 05:24:15;;;;;;;38.60;17.23;;;6.50;99.90;;;;;;6180478;23;20428;-86
2022/01/17 05:26:41;;;;;;;39.27;16.87;;;6.50;99.90;;;;;;6185659;23;20001;-86
2022/01/17 05:29:07;;;;;;;37.60;16.37;;;6.50;99.90;;;;;;6184477;23;20011;-85
2022/01/17 05:31:33;;;;;;;43.67;19.90;;;6.50;99.90;;;;;;6185461;23;20075;-84
2022/01/17 05:33:58;;;;;;;38.97;17.33;;;6.50;99.90;;;;;;6208129;23;20448;-84
2022/01/17 05:36:24;;;;;;;37.47;16.43;;;6.50;99.90;;;;;;6208251;23;20036;-84
2022/01/17 05:38:52;;;;;;;37.93;16.13;;;6.50;99.90;;;;;;6182575;23;20009;-84
2022/01/17 05:41:18;;;;;;;43.80;17.33;;;6.50;99.90;;;;;;6184352;23;20012;-84
2022/01/17 05:43:45;;;;;;;39.03;16.70;;;6.50;99.90;;;;;;6208287;23;20048;-84
2022/01/17 05:46:10;;;;;;;36.53;17.13;;;6.50;99.90;;;;;;6184794;23;20032;-84
2022/01/17 05:48:36;;;;;;;42.53;16.33;;;6.50;99.90;;;;;;6184092;23;20009;-84
2022/01/17 05:51:02;;;;;;;38.20;17.27;;;6.50;99.90;;;;;;6184324;23;20379;-84
2022/01/17 05:53:28;;;;;;;40.80;16.37;;;6.60;99.90;;;;;;6183018;23;20289;-84
2022/01/17 05:55:53;;;;;;;41.07;17.03;;;6.50;99.90;;;;;;6184499;23;20013;-85
2022/01/17 05:58:20;;;;;;;37.53;16.67;;;6.50;99.90;;;;;;6182215;23;20023;-85
2022/01/17 06:00:45;;;;;;;39.10;16.07;;;6.50;99.90;;;;;;6208168;23;20054;-87
2022/01/17 06:03:11;;;;;;;37.47;15.43;;;6.40;99.90;;;;;;6183143;23;20657;-88
2022/01/17 06:05:37;;;;;;;34.77;16.40;;;6.50;99.90;;;;;;6184356;23;20012;-87
2022/01/17 06:08:03;;;;;;;35.47;15.73;;;6.60;99.90;;;;;;6208014;23;20005;-86
2022/01/17 06:10:29;;;;;;;31.63;15.33;;;6.50;99.90;;;;;;6183565;23;20012;-84
2022/01/17 06:12:55;;;;;;;35.80;15.60;;;6.50;99.90;;;;;;6208133;23;20020;-86
2022/01/17 06:15:21;;;;;;;48.17;16.67;;;6.50;99.90;;;;;;6183940;23;20040;-83
2022/01/17 06:17:47;;;;;;;37.40;16.07;;;6.50;99.90;;;;;;6158352;23;20024;-88
2022/01/17 06:20:13;;;;;;;33.77;15.20;;;6.50;99.90;;;;;;6210275;23;20340;-84
2022/01/17 06:22:39;;;;;;;36.43;15.10;;;6.50;99.90;;;;;;6185396;23;20009;-83
2022/01/17 06:25:06;;;;;;;40.67;15.47;;;6.50;99.90;;;;;;6158121;23;20316;-87
2022/01/17 06:27:31;;;;;;;37.43;16.57;;;6.60;99.90;;;;;;6157679;23;20005;-89
2022/01/17 06:29:59;;;;;;;35.83;15.50;;;6.60;99.90;;;;;;6157963;23;20013;-90
2022/01/17 06:32:26;;;;;;;41.07;16.97;;;6.50;99.90;;;;;;6158132;23;20459;-89
2022/01/17 06:34:55;;;;;;;34.70;16.57;;;6.50;99.90;;;;;;6157710;23;20100;-83
2022/01/17 06:37:22;;;;;;;36.63;15.88;;;6.50;99.90;;;;;;6183791;23;20059;-83
2022/01/17 06:39:47;;;;;;;36.60;15.10;;;6.60;99.90;;;;;;6156539;23;20345;-84
2022/01/17 06:42:13;;;;;;;35.53;15.60;;;6.50;99.90;;;;;;6182850;23;20001;-83
2022/01/17 06:44:39;;;;;;;32.10;13.70;;;6.50;99.90;;;;;;6182245;23;20005;-84
2022/01/17 06:47:05;;;;;;;34.57;14.50;;;6.40;99.90;;;;;;6183463;23;20013;-84
2022/01/17 06:49:31;;;;;;;36.57;13.90;;;6.50;99.90;;;;;;6182528;23;20011;-84
2022/01/17 06:51:56;;;;;;;38.57;14.73;;;6.40;99.90;;;;;;6182933;23;20087;-84
2022/01/17 06:54:22;;;;;;;35.00;15.90;;;6.40;99.90;;;;;;6158170;23;20009;-83
2022/01/17 06:56:48;;;;;;;34.97;16.07;;;6.40;99.90;;;;;;6157005;23;20087;-84
2022/01/17 06:59:14;;;;;;;31.23;14.47;;;6.40;99.90;;;;;;6183652;23;20012;-83
2022/01/17 07:01:41;;;;;;;33.63;14.77;;;6.30;99.90;;;;;;6156978;23;20015;-84
2022/01/17 07:04:08;;;;;;;32.30;13.63;;;6.30;99.90;;;;;;6157195;23;20009;-84
2022/01/17 07:06:34;;;;;;;32.07;13.97;;;6.30;99.90;;;;;;6181098;23;20005;-84
2022/01/17 07:09:01;;;;;;;31.57;13.10;;;6.30;99.90;;;;;;6182128;23;20436;-84
2022/01/17 07:11:26;;;;;;;34.43;13.97;;;6.30;99.90;;;;;;6183344;23;19997;-84
2022/01/17 07:13:52;;;;;;;31.90;13.47;;;6.30;99.90;;;;;;6184098;23;20001;-83
2022/01/17 07:16:19;;;;;;;26.27;12.20;;;6.30;99.90;;;;;;6158116;23;20009;-84
2022/01/17 07:18:45;;;;;;;29.80;13.07;;;6.40;99.90;;;;;;6183355;23;20009;-84
2022/01/17 07:21:10;;;;;;;28.23;13.30;;;6.30;99.90;;;;;;6181667;23;20001;-85
2022/01/17 07:23:37;;;;;;;29.70;13.33;;;6.30;99.90;;;;;;6172675;23;20013;-86
2022/01/17 07:26:03;;;;;;;27.23;12.70;;;6.30;99.90;;;;;;6184198;23;20009;-84
2022/01/17 07:28:29;;;;;;;32.23;14.40;;;6.20;99.90;;;;;;6184497;23;20325;-88
2022/01/17 07:30:55;;;;;;;32.30;14.80;;;6.40;99.90;;;;;;6182359;23;20004;-88
2022/01/17 07:33:23;;;;;;;32.33;14.73;;;6.50;99.90;;;;;;6185584;23;20083;-88
2022/01/17 07:35:48;;;;;;;32.50;14.90;;;6.60;99.90;;;;;;6182224;23;20012;-88
2022/01/17 07:38:15;;;;;;;32.63;14.83;;;6.50;99.90;;;;;;6206785;23;20009;-87
2022/01/17 07:40:43;;;;;;;31.87;14.00;;;6.80;99.90;;;;;;6207056;23;20009;-89
2022/01/17 07:43:10;;;;;;;33.37;14.97;;;6.90;99.90;;;;;;6183634;23;20061;-91
2022/01/17 07:45:43;;;;;;;33.80;15.43;;;6.80;99.90;;;;;;6196037;23;20017;-90
2022/01/17 07:48:33;;;;;;;33.73;15.67;;;6.80;99.90;;;;;;6182001;23;20520;-86
2022/01/17 07:50:55;;;;;;;28.53;14.27;;;6.80;99.90;;;;;;6181767;23;20010;-87
2022/01/17 07:53:21;;;;;;;26.73;14.10;;;6.70;99.90;;;;;;6182642;23;20377;-87
2022/01/17 07:55:46;;;;;;;34.20;15.23;;;6.60;99.90;;;;;;6184969;23;20009;-82
2022/01/17 07:58:12;;;;;;;30.93;14.87;;;6.60;99.90;;;;;;6182595;23;20009;-83
2022/01/17 08:00:38;;;;;;;31.40;14.27;;;6.60;99.90;;;;;;6183533;23;20009;-83
2022/01/17 08:03:06;;;;;;;38.27;17.03;;;6.50;99.90;;;;;;6180761;23;20071;-83
2022/01/17 08:05:33;;;;;;;30.53;16.07;;;6.50;99.90;;;;;;6183681;23;20059;-83
2022/01/17 08:08:00;;;;;;;30.30;16.67;;;6.60;99.90;;;;;;6185605;23;20060;-83
2022/01/17 08:10:26;;;;;;;36.83;17.63;;;6.60;99.90;;;;;;6183089;23;20096;-83
2022/01/17 08:12:52;;;;;;;34.57;17.97;;;6.60;99.90;;;;;;6208269;23;20009;-82
2022/01/17 08:15:18;;;;;;;35.57;17.40;;;6.50;99.90;;;;;;6183299;23;20009;-83
2022/01/17 08:17:45;;;;;;;39.40;19.47;;;6.60;99.90;;;;;;6186890;23;20008;-83
2022/01/17 08:20:11;;;;;;;48.23;21.13;;;6.60;99.90;;;;;;6210196;23;20007;-83
2022/01/17 08:22:37;;;;;;;42.20;20.60;;;6.50;99.90;;;;;;6183504;23;20009;-83
2022/01/17 08:25:04;;;;;;;44.07;19.70;;;6.60;99.90;;;;;;6185353;23;20035;-83
2022/01/17 08:27:29;;;;;;;46.03;20.23;;;6.60;99.90;;;;;;6183397;23;20047;-85
2022/01/17 08:29:57;;;;;;;44.37;20.97;;;6.60;99.90;;;;;;6181613;23;20013;-85
2022/01/17 08:32:23;;;;;;;41.13;19.07;;;6.60;99.90;;;;;;6181743;23;20072;-87
2022/01/17 08:34:49;;;;;;;38.83;18.57;;;6.60;99.90;;;;;;6206531;23;20435;-87
2022/01/17 08:37:15;;;;;;;37.70;18.33;;;6.60;99.90;;;;;;6184125;23;20024;-83
2022/01/17 08:39:40;;;;;;;37.70;18.03;;;6.60;99.90;;;;;;6184497;23;20047;-87
2022/01/17 08:42:10;;;;;;;36.63;18.77;;;6.60;99.90;;;;;;6181369;23;20088;-89
2022/01/17 08:44:39;;;;;;;32.27;17.33;;;6.70;99.90;;;;;;6181150;23;20656;-85
2022/01/17 08:47:06;;;;;;;37.97;17.17;;;6.60;99.90;;;;;;6182316;23;20025;-83
2022/01/17 08:49:32;;;;;;;36.30;18.47;;;6.70;99.90;;;;;;6186626;23;20009;-83
2022/01/17 08:51:58;;;;;;;37.03;18.43;;;6.70;99.90;;;;;;6183238;23;20392;-84
2022/01/17 08:54:24;;;;;;;38.10;18.50;;;6.80;99.90;;;;;;6207366;23;20013;-89
2022/01/17 08:56:50;;;;;;;37.47;18.73;;;6.80;99.90;;;;;;6187059;23;20035;-90
2022/01/17 08:59:15;;;;;;;34.17;18.70;;;6.80;99.90;;;;;;6181195;23;20071;-85
2022/01/17 09:01:41;;;;;;;39.93;20.53;;;6.70;99.90;;;;;;6181309;23;20009;-86
2022/01/17 09:04:07;;;;;;;38.57;18.30;;;6.70;99.90;;;;;;6181591;23;20452;-89
2022/01/17 09:06:33;;;;;;;55.93;23.80;;;6.70;99.90;;;;;;6206605;23;20025;-88
2022/01/17 09:08:58;;;;;;;60.03;26.07;;;6.70;99.90;;;;;;6182312;23;20501;-91
2022/01/17 09:11:24;;;;;;;52.87;23.80;;;6.70;99.90;;;;;;6181372;23;20009;-88
2022/01/17 09:13:50;;;;;;;56.60;24.30;;;6.70;99.90;;;;;;6180867;23;20009;-88
2022/01/17 09:16:16;;;;;;;57.50;27.03;;;6.70;99.90;;;;;;6156599;23;20013;-88
2022/01/17 09:18:42;;;;;;;66.00;27.43;;;6.70;99.90;;;;;;6180673;23;20036;-89
2022/01/17 09:21:08;;;;;;;61.87;29.00;;;6.60;99.90;;;;;;6156443;23;20005;-87
2022/01/17 09:23:34;;;;;;;46.83;21.17;;;6.70;99.90;;;;;;6181143;23;20020;-87
2022/01/17 09:26:00;;;;;;;46.47;21.67;;;6.70;99.90;;;;;;6181358;23;20440;-87
2022/01/17 09:28:25;;;;;;;40.23;21.17;;;6.70;99.90;;;;;;6206331;23;20009;-88
2022/01/17 09:30:51;;;;;;;41.97;20.63;;;6.70;99.90;;;;;;6181401;23;20404;-88
2022/01/17 09:33:17;;;;;;;46.73;21.33;;;6.70;99.90;;;;;;6156861;23;20013;-88
2022/01/17 09:35:43;;;;;;;44.80;21.13;;;6.70;99.90;;;;;;6181457;23;20032;-88
2022/01/17 09:38:09;;;;;;;43.30;21.47;;;6.70;99.90;;;;;;6183286;23;20012;-87
2022/01/17 09:40:35;;;;;;;41.77;21.27;;;6.70;99.90;;;;;;6181866;23;20048;-87
2022/01/17 09:43:02;;;;;;;39.60;20.93;;;6.80;99.90;;;;;;6182483;23;20085;-88
2022/01/17 09:45:29;;;;;;;42.47;21.70;;;6.70;99.90;;;;;;6182414;23;20009;-90
2022/01/17 09:47:55;;;;;;;39.17;21.13;;;6.70;99.90;;;;;;6184503;23;20040;-92
2022/01/17 09:50:32;;;;;;;44.00;21.97;;;6.70;99.90;;;;;;6186166;23;20041;-93
2022/01/17 09:52:59;;;;;;;40.97;21.70;;;6.80;99.90;;;;;;6188766;23;20008;-91
2022/01/17 09:55:28;;;;;;;45.97;21.17;;;6.70;99.90;;;;;;6189330;23;20012;-95
2022/01/17 09:58:02;;;;;;;40.28;21.42;;;6.70;99.90;;;;;;6184074;23;20013;-91
2022/01/17 10:00:30;;;;;;;45.27;21.97;;;6.70;99.90;;;;;;6183120;23;20104;-94
2022/01/17 10:05:26;;;;;;;41.73;21.30;;;6.70;99.90;;;;;;6181763;23;20021;-88
2022/01/17 10:07:58;;;;;;;38.00;19.37;;;6.80;99.90;;;;;;6180746;23;20070;-88
2022/01/17 10:10:57;;;;;;;43.10;21.63;;;6.70;99.90;;;;;;6134614;23;20422;-90
2022/01/17 10:13:26;;;;;;;42.42;22.67;;;6.70;99.90;;;;;;6177482;23;20020;-93
2022/01/17 10:16:21;;;;;;;46.13;23.40;;;6.70;99.90;;;;;;6153427;23;20013;-87
2022/01/17 10:19:02;;;;;;;45.37;22.17;;;6.70;99.90;;;;;;6128927;23;20040;-89
2022/01/17 10:21:45;;;;;;;47.00;22.67;;;6.70;99.90;;;;;;6153317;23;20080;-88
2022/01/17 10:24:26;;;;;;;48.07;23.50;;;6.70;99.90;;;;;;6128906;23;20002;-88
2022/01/17 10:35:26;;;;;;;44.10;21.67;;;6.80;99.90;;;;;;6154091;23;20009;-86
2022/01/17 10:38:04;;;;;;;45.33;21.07;;;6.80;99.90;;;;;;6127790;23;20013;-86
2022/01/17 10:40:42;;;;;;;46.63;21.73;;;6.80;99.90;;;;;;6152487;23;20012;-86
2022/01/17 10:43:25;;;;;;;39.00;19.93;;;6.90;99.90;;;;;;6152723;23;20084;-86
2022/01/17 10:45:51;;;;;;;44.53;21.93;;;6.90;99.90;;;;;;6128036;23;20378;-86
2022/01/17 10:48:17;;;;;;;38.97;20.13;;;6.90;99.90;;;;;;6153324;23;20444;-87
2022/01/17 10:50:48;;;;;;;39.43;20.13;;;6.90;99.90;;;;;;6128736;23;20060;-85
2022/01/17 10:53:16;;;;;;;44.37;20.43;;;6.90;99.90;;;;;;6128068;23;20457;-86
2022/01/17 10:55:54;;;;;;;43.43;19.93;;;6.90;99.90;;;;;;6152386;23;20009;-85
2022/01/17 10:58:23;;;;;;;41.93;20.13;;;6.90;99.90;;;;;;6127753;23;20029;-85
2022/01/17 11:00:55;;;;;;;44.72;20.13;;;7.00;99.90;;;;;;6127587;23;20002;-85
2022/01/17 11:03:25;;;;;;;40.70;18.43;;;7.00;99.90;;;;;;6127792;23;20082;-86
2022/01/17 11:05:53;;;;;;;47.90;19.80;;;7.00;99.90;;;;;;6127893;23;20444;-85
2022/01/17 11:08:22;;;;;;;41.97;18.07;;;6.90;99.90;;;;;;6151912;23;20009;-86
2022/01/17 11:10:53;;;;;;;37.58;18.40;;;7.00;99.90;;;;;;6127444;23;20009;-85
2022/01/17 11:13:22;;;;;;;37.17;17.50;;;7.00;99.90;;;;;;6127702;23;20010;-85
2022/01/17 11:15:55;;;;;;;37.17;17.17;;;6.90;99.90;;;;;;6127904;23;20060;-85
2022/01/17 11:18:25;;;;;;;45.97;19.77;;;7.00;99.90;;;;;;6127241;23;20436;-85
2022/01/17 11:20:54;;;;;;;49.93;21.80;;;7.00;99.90;;;;;;6153581;23;20013;-86
2022/01/17 11:23:21;;;;;;;44.35;20.95;;;7.00;99.90;;;;;;6127694;23;20345;-86
2022/01/17 11:25:52;;;;;;;44.87;21.70;;;7.00;99.90;;;;;;6127605;23;20119;-86
2022/01/17 11:28:22;;;;;;;49.10;20.47;;;7.00;99.90;;;;;;6151853;23;20101;-86
2022/01/17 11:30:48;;;;;;;;;;;7.00;99.90;;;;;;6128172;23;20021;-85
2022/01/17 11:33:14;;;;;;;39.17;18.70;;;7.00;99.90;;;;;;6152222;23;19905;-85
2022/01/17 11:35:42;;;;;;;45.30;18.27;;;7.10;99.90;;;;;;6127354;23;20012;-86
2022/01/17 11:38:15;;;;;;;49.77;20.20;;;7.10;99.90;;;;;;6127496;23;20010;-85
2022/01/17 11:40:42;;;;;;;45.40;17.67;;;7.00;99.90;;;;;;6127377;23;20060;-86
2022/01/17 11:43:33;;;;;;;39.83;16.97;;;7.10;99.90;;;;;;6151807;23;20472;-86
2022/01/17 11:46:00;;;;;;;35.70;17.10;;;7.10;99.90;;;;;;6152092;23;20092;-86
2022/01/17 11:48:31;;;;;;;45.30;18.13;;;7.20;99.90;;;;;;6128808;23;20458;-85
2022/01/17 11:51:09;;;;;;;36.50;17.60;;;7.10;99.90;;;;;;6127628;23;20009;-87
2022/01/17 11:53:37;;;;;;;48.57;19.30;;;7.10;99.90;;;;;;6127863;23;20499;-87
2022/01/17 11:56:04;;;;;;;55.50;22.13;;;7.10;99.90;;;;;;6127486;23;20045;-88
2022/01/17 11:58:45;;;;;;;63.80;22.40;;;7.10;99.90;;;;;;6127451;23;20185;-87
2022/01/17 12:01:12;;;;;;;74.37;23.07;;;7.10;99.90;;;;;;6127202;23;20096;-88
2022/01/17 12:03:55;;;;;;;65.97;23.80;;;7.10;99.90;;;;;;6155057;23;20081;-87
2022/01/17 12:06:32;;;;;;;63.73;24.60;;;7.10;99.90;;;;;;6152226;23;20084;-89
2022/01/17 12:09:18;;;;;;;68.37;23.90;;;7.10;99.90;;;;;;6152025;23;20006;-86
2022/01/17 12:11:44;;;;;;;67.43;24.27;;;7.10;99.90;;;;;;6151907;23;20091;-86
2022/01/17 12:14:29;;;;;;;67.03;24.30;;;7.10;99.90;;;;;;6151986;23;20017;-87
2022/01/17 12:17:23;;;;;;;54.23;22.57;;;7.10;99.90;;;;;;6126919;23;20394;-86
2022/01/17 12:20:09;;;;;;;46.13;18.80;;;7.10;99.90;;;;;;6175806;23;20368;-86
2022/01/17 12:22:46;;;;;;;60.90;20.93;;;7.10;99.90;;;;;;6151765;23;20432;-86
2022/01/17 12:25:31;;;;;;;66.27;22.50;;;7.00;99.90;;;;;;6176211;23;20009;-86
2022/01/17 12:28:04;;;;;;;55.67;21.03;;;7.10;99.90;;;;;;6127226;23;20013;-86
2022/01/17 12:30:54;;;;;;;57.07;21.60;;;7.10;99.90;;;;;;6176535;23;20018;-87
2022/01/17 12:33:31;;;;;;;53.47;19.17;;;7.20;99.90;;;;;;6127010;23;20024;-86
2022/01/17 12:36:03;;;;;;;44.80;18.70;;;7.10;99.90;;;;;;6176540;23;20085;-86
2022/01/17 12:38:42;;;;;;;48.23;17.93;;;7.10;99.90;;;;;;6126483;23;20009;-86
2022/01/17 12:41:34;;;;;;;42.47;17.20;;;7.10;99.90;;;;;;6126976;23;20021;-89
2022/01/17 12:44:22;;;;;;;41.50;15.40;;;7.10;99.90;;;;;;6152676;23;20009;-88
2022/01/17 12:46:51;;;;;;;48.70;16.00;;;7.20;99.90;;;;;;6127217;23;20006;-87
2022/01/17 12:49:17;;;;;;;;;;;7.20;99.90;;;;;;6152631;23;20425;-87
2022/01/17 12:51:45;;;;;;;38.10;15.33;;;7.20;99.90;;;;;;6176384;23;19904;-87
2022/01/17 12:54:20;;;;;;;41.43;16.77;;;7.20;99.90;;;;;;6151670;23;20357;-86
2022/01/17 12:56:48;;;;;;;39.17;15.40;;;7.20;99.90;;;;;;6126608;23;20016;-88
2022/01/17 12:59:16;;;;;;;40.73;15.70;;;7.20;99.90;;;;;;6152041;23;20010;-87
2022/01/17 13:01:54;;;;;;;42.33;16.57;;;7.20;99.90;;;;;;6126713;23;20006;-87
2022/01/17 13:04:20;;;;;;;39.77;16.30;;;7.20;99.90;;;;;;6151501;23;20444;-87
2022/01/17 13:06:49;;;;;;;43.87;14.93;;;7.20;99.90;;;;;;6175981;23;20093;-86
2022/01/17 13:09:21;;;;;;;37.25;13.20;;;7.20;99.90;;;;;;6126556;23;20459;-88
2022/01/17 13:11:49;;;;;;;34.87;13.63;;;7.20;99.90;;;;;;6151155;23;20008;-87